Flight Track Log - Related Links

Times and Time Zones

All times are in EDT time to prevent confusion due to time zone crossing. See the SWA318 flight status page for this flight to view local times or setup timezone preferences in your user account.

Time Position Orientation Groundspeed Altitude Reporting Facility
EDT Latitude Longitude Course Direction KTS MPH feet Rate Location/Type
Sat 12:33:03 AM 39.1833 -76.7167 182° South 155 178 2,000  Level Potomac TRACON
Sat 12:35:07 AM 39.1081 -76.7203 182° South 129 148 6,400 1,728 Climbing Washington Center
Sat 12:36:07 AM 39.1175 -76.6136 83° East 179 206 7,300 1,450 Climbing Washington Center
Sat 12:37:07 AM 39.1225 -76.5039 87° East 244 281 9,300 2,450 Climbing Washington Center
Sat 12:38:07 AM 39.1381 -76.3731 81° East 310 357 12,200 3,050 Climbing Washington Center
Sat 12:39:07 AM 39.1556 -76.2314 81° East 357 411 15,400 3,150 Climbing Washington Center
Sat 12:40:07 AM 39.2478 -76.0953 49° Northeast 410 472 18,500 2,680 Climbing Washington Center
Sat 12:42:33 AM 39.4425 -75.7739 52° Northeast 468 539 24,600 2,592 Climbing New York Center
Sat 12:43:33 AM 39.5231 -75.6397 52° Northeast 473 544 27,400 2,146 Climbing New York Center
Sat 12:44:36 AM 39.6058 -75.5053 51° Northeast 473 544 29,000 800 Climbing New York Center
Sat 12:45:33 AM 39.6883 -75.3650 53° Northeast 479 551 29,000  Level New York Center
Sat 12:46:34 AM 39.7753 -75.2222 52° Northeast 484 557 29,000  Level New York Center
Sat 12:47:35 AM 39.8514 -75.0836 54° Northeast 499 574 29,000  Level New York Center
Sat 12:48:36 AM 39.9397 -74.9403 51° Northeast 510 587 29,000  Level New York Center
Sat 12:49:33 AM 40.0350 -74.7778 53° Northeast 510 587 29,000  Level New York Center
Sat 12:50:34 AM 40.1144 -74.6467 52° Northeast 510 587 29,000  Level New York Center
Sat 12:51:36 AM 40.2025 -74.5022 51° Northeast 516 594 29,000  Level New York Center
Sat 12:52:34 AM 40.3125 -74.3803 40° Northeast 510 587 29,000  Level New York Center
Sat 12:53:36 AM 40.4247 -74.2606 39° Northeast 510 587 29,000 -928 Level New York Center
Sat 12:55:48 AM 40.6850 -73.9808 39° Northeast 505 581 26,000 -1,563 Descending Boston Center
Sat 12:56:48 AM 40.7886 -73.8683 39° Northeast 505 581 24,000 -1,000 Descending Boston Center
Sat 12:57:48 AM 40.8881 -73.7469 43° Northeast 494 568 24,000 -350 Level Boston Center
Sat 12:58:48 AM 41.0056 -73.6778 24° Northeast 459 528 23,300 -500 Descending Boston Center
Sat 12:59:48 AM 41.1306 -73.6883 356° North 431 496 23,000 -150 Descending Boston Center
Sat 01:00:48 AM 41.2533 -73.6992 356° North 431 496 23,000  Level Boston Center
Sat 01:01:48 AM 41.3806 -73.7044 358° North 431 496 23,000 -250 Level Boston Center
Sat 01:02:48 AM 41.5053 -73.7153 356° North 444 511 22,500 -1,350 Descending Boston Center
Sat 01:03:48 AM 41.6303 -73.7233 357° North 444 511 20,300 -2,100 Descending Boston Center
Sat 01:04:48 AM 41.7511 -73.7311 357° North 438 504 18,300 -2,000 Descending Boston Center
Sat 01:05:54 AM 41.8822 -73.7450 355° North 434 499 16,100 -1,842 Descending Boston Center
Sat 01:06:42 AM 41.9717 -73.7525 356° North 423 487 14,800 -1,455 Descending Boston Center
Sat 01:07:00 AM 42.0094 -73.7533 359° North 426 490 14,500 -1,091 Descending Boston Center
Sat 01:07:37 AM 42.0781 -73.7603 356° North 411 473 13,800 -1,100 Descending Boston Center
Sat 01:08:00 AM 42.1239 -73.7586 North 413 475 13,400 -1,273 Descending Boston Center
Sat 01:08:43 AM 42.2050 -73.7686 355° North 396 456 12,400 -1,500 Descending Boston Center
Sat 01:09:00 AM 42.2322 -73.7664 North 401 461 11,900 -1,377 Descending Boston Center
Sat 01:09:44 AM 42.3092 -73.7792 353° North 378 435 11,000 -1,100 Descending Boston Center
Sat 01:10:00 AM 42.3319 -73.7797 359° North 381 438 10,800 -1,869 Descending Boston Center
Sat 01:10:45 AM 42.3919 -73.8175 335° Northwest 303 349 9,100 -2,800 Descending Boston Center
Sat 01:11:00 AM 42.4128 -73.8292 338° Northwest 324 373 8,000 -3,100 Descending Boston Center
Sat 01:11:45 AM 42.4686 -73.8586 339° North 280 322 6,000 -2,400 Descending Boston Center
Sat 01:12:00 AM 42.4875 -73.8478 23° Northeast 288 331 5,600 -2,262 Descending Boston Center
Sat 01:12:46 AM 42.5358 -73.8094 30° Northeast 270 311 3,700 -1,550 Descending Boston Center
Sat 01:14:00 AM 42.6069 -73.7997 North 232 267 2,500 -939 Descending Boston Center
Sat 01:14:41 AM 42.6403 -73.8006 359° North 153 176 1,900 -400 Descending Boston Center
Sat 01:15:00 AM 42.6697 -73.7842 22° Northeast 219 252 2,100 -393 Climbing Boston Center
Sat 01:15:42 AM 42.6797 -73.8042 304° West 139 160 1,500 -824 Descending Boston Center
Sat 01:16:42 AM 42.7172 -73.8050 359° North 123 142 700 -800 Descending Boston Center
Sat 01:21:00 AM 42.7491 -73.8020 22° Northeast  Level Estimated

Login

Don't have an account? Register now (free) for customized features, flight alerts, and more!